createdAt,value
2022-11-16T00:02:17.670Z,15.50
2022-11-16T00:05:16.146Z,12.43
2022-11-16T00:08:09.713Z,16.60
2022-11-16T00:11:09.442Z,16.93
2022-11-16T00:14:02.820Z,16.37
2022-11-16T00:16:53.492Z,16.90
2022-11-16T00:19:45.069Z,16.93
2022-11-16T00:22:35.602Z,17.03
2022-11-16T00:25:27.237Z,17.60
2022-11-16T00:28:17.222Z,17.47
2022-11-16T00:31:13.855Z,16.00
2022-11-16T00:34:07.262Z,17.13
2022-11-16T00:36:57.836Z,18.23
2022-11-16T00:39:48.061Z,16.50
2022-11-16T00:42:42.743Z,18.00
2022-11-16T00:45:35.794Z,17.50
2022-11-16T00:48:26.299Z,17.50
2022-11-16T00:51:14.890Z,17.40
2022-11-16T00:54:24.181Z,17.70
2022-11-16T00:57:12.834Z,18.77
2022-11-16T01:00:05.612Z,18.20
2022-11-16T01:03:14.886Z,18.57
2022-11-16T01:06:06.989Z,17.73
2022-11-16T01:08:55.590Z,19.37
2022-11-16T01:12:03.568Z,16.80
2022-11-16T01:14:56.592Z,18.27
2022-11-16T01:17:47.994Z,17.27
2022-11-16T01:20:38.912Z,17.87
2022-11-16T01:23:27.497Z,18.47
2022-11-16T01:26:18.983Z,19.20
2022-11-16T01:29:08.969Z,18.40
2022-11-16T01:31:59.129Z,19.27
2022-11-16T01:34:47.697Z,18.67
2022-11-16T01:37:40.668Z,18.60
2022-11-16T01:40:29.369Z,19.63
2022-11-16T01:43:20.673Z,18.73
2022-11-16T01:46:14.950Z,19.40
2022-11-16T01:49:09.531Z,18.53
2022-11-16T01:52:04.623Z,18.83
2022-11-16T01:55:29.682Z,19.47
2022-11-16T01:58:23.209Z,19.23
2022-11-16T02:01:15.848Z,19.00
2022-11-16T02:04:06.062Z,19.23
2022-11-16T02:07:03.705Z,19.20
2022-11-16T02:10:04.086Z,18.90
2022-11-16T02:13:11.414Z,20.70
2022-11-16T02:16:06.990Z,20.37
2022-11-16T02:18:59.548Z,18.50
2022-11-16T02:22:00.154Z,19.07
2022-11-16T02:24:55.383Z,18.20
2022-11-16T02:27:55.933Z,19.90
2022-11-16T02:30:48.693Z,19.93
2022-11-16T02:33:40.118Z,19.97
2022-11-16T02:36:34.223Z,20.17
2022-11-16T02:39:28.774Z,18.73
2022-11-16T02:42:19.721Z,22.00
2022-11-16T02:45:22.451Z,20.13
2022-11-16T02:48:16.038Z,21.27
2022-11-16T02:51:09.386Z,21.47
2022-11-16T02:54:01.999Z,21.30
2022-11-16T02:56:52.701Z,20.83
2022-11-16T02:59:48.559Z,20.63
2022-11-16T03:02:41.478Z,20.87
2022-11-16T03:05:35.457Z,19.40
2022-11-16T03:08:27.067Z,22.43
2022-11-16T03:11:33.826Z,20.73
2022-11-16T03:14:26.365Z,22.00
2022-11-16T03:17:20.724Z,20.57
2022-11-16T03:20:17.867Z,21.87
2022-11-16T03:23:13.181Z,21.33
2022-11-16T03:26:03.413Z,22.77
2022-11-16T03:28:56.290Z,21.77
2022-11-16T03:31:55.123Z,22.20
2022-11-16T03:34:50.191Z,22.70
2022-11-16T03:37:44.157Z,20.23
2022-11-16T03:40:39.951Z,21.80
2022-11-16T03:43:32.307Z,20.73
2022-11-16T03:46:28.670Z,21.37
2022-11-16T03:49:20.179Z,20.00
2022-11-16T03:52:11.600Z,20.20
2022-11-16T03:55:06.089Z,21.30
2022-11-16T03:57:57.437Z,21.20
2022-11-16T04:00:53.254Z,19.53
2022-11-16T04:03:46.088Z,19.50
2022-11-16T04:06:55.820Z,21.10
2022-11-16T04:10:03.560Z,19.50
2022-11-16T04:13:09.906Z,18.93
2022-11-16T04:16:22.022Z,20.70
2022-11-16T04:19:28.017Z,20.80
2022-11-16T04:22:36.330Z,21.27
2022-11-16T04:25:28.554Z,19.80
2022-11-16T04:28:18.929Z,19.63
2022-11-16T04:31:30.671Z,19.90
2022-11-16T04:34:33.171Z,18.40
2022-11-16T04:37:44.220Z,20.27
2022-11-16T04:40:35.137Z,19.60
2022-11-16T04:43:27.681Z,19.83
2022-11-16T04:46:38.054Z,19.60
2022-11-16T04:49:32.107Z,20.50
2022-11-16T04:52:23.999Z,18.67
2022-11-16T04:55:16.331Z,19.50
2022-11-16T04:58:05.343Z,20.60
2022-11-16T05:00:54.082Z,20.00
2022-11-16T05:06:55.616Z,18.90
2022-11-16T05:09:50.413Z,18.63
2022-11-16T05:15:42.778Z,18.33
2022-11-16T05:18:36.171Z,20.10
2022-11-16T05:21:27.195Z,20.10
2022-11-16T05:27:38.515Z,19.37
2022-11-16T05:30:28.641Z,18.10
2022-11-16T05:33:28.373Z,19.70
2022-11-16T05:36:16.939Z,19.03
2022-11-16T05:39:11.380Z,19.57
2022-11-16T05:42:04.811Z,18.03
2022-11-16T05:44:53.415Z,20.43
2022-11-16T05:47:42.002Z,17.47
2022-11-16T05:50:31.862Z,18.77
2022-11-16T05:53:20.407Z,14.53
2022-11-16T05:56:14.250Z,18.47
2022-11-16T05:59:07.830Z,18.87
2022-11-16T06:02:03.986Z,18.63
2022-11-16T06:04:54.468Z,18.50
2022-11-16T06:07:53.877Z,20.23
2022-11-16T06:10:42.397Z,19.13
2022-11-16T06:13:32.460Z,20.87
2022-11-16T06:16:29.287Z,18.30
2022-11-16T06:19:17.851Z,18.53
2022-11-16T06:22:07.649Z,19.50
2022-11-16T06:25:03.812Z,19.77
2022-11-16T06:27:54.104Z,18.43
2022-11-16T06:30:51.411Z,20.60
2022-11-16T06:33:44.245Z,19.13
2022-11-16T06:36:35.598Z,19.80
2022-11-16T06:39:31.628Z,20.70
2022-11-16T06:42:23.769Z,18.50
2022-11-16T06:45:15.141Z,18.90
2022-11-16T06:48:10.724Z,18.40
2022-11-16T06:51:12.480Z,20.03
2022-11-16T06:54:09.422Z,18.57
2022-11-16T06:56:59.185Z,18.70
2022-11-16T06:59:50.553Z,18.73
2022-11-16T07:02:39.364Z,18.23
2022-11-16T07:05:32.463Z,19.67
2022-11-16T07:08:21.082Z,19.60
2022-11-16T07:11:10.725Z,19.17
2022-11-16T07:14:02.059Z,18.57
2022-11-16T07:17:01.874Z,18.90
2022-11-16T07:19:58.485Z,18.73
2022-11-16T07:22:50.821Z,18.93
2022-11-16T07:25:39.388Z,19.57
2022-11-16T07:28:40.923Z,18.07
2022-11-16T07:31:37.058Z,18.70
2022-11-16T07:34:32.786Z,19.30
2022-11-16T07:37:21.627Z,20.10
2022-11-16T07:40:15.271Z,19.70
2022-11-16T07:43:05.956Z,19.40
2022-11-16T07:46:13.795Z,20.23
2022-11-16T07:49:11.522Z,19.60
2022-11-16T07:52:03.882Z,20.60
2022-11-16T07:54:55.318Z,18.93
2022-11-16T07:57:56.791Z,19.70
2022-11-16T08:00:45.650Z,19.27
2022-11-16T08:03:45.695Z,20.90
2022-11-16T08:06:42.461Z,20.50
2022-11-16T08:09:34.476Z,20.47
2022-11-16T08:12:26.189Z,21.00
2022-11-16T08:15:23.370Z,20.40
2022-11-16T08:18:19.423Z,19.93
2022-11-16T08:21:08.866Z,21.33
2022-11-16T08:24:00.395Z,21.80
2022-11-16T08:26:50.172Z,21.20
2022-11-16T08:29:45.028Z,20.37
2022-11-16T08:32:35.095Z,21.47
2022-11-16T08:35:23.655Z,21.60
2022-11-16T08:38:12.270Z,20.73
2022-11-16T08:41:02.126Z,20.83
2022-11-16T08:44:00.612Z,21.43
2022-11-16T08:46:56.302Z,20.10
2022-11-16T08:49:49.848Z,21.83
2022-11-16T08:52:40.088Z,21.70
2022-11-16T08:55:29.792Z,21.17
2022-11-16T08:58:18.409Z,21.10
2022-11-16T09:01:15.706Z,20.93
2022-11-16T09:04:04.336Z,20.90
2022-11-16T09:06:56.821Z,21.27
2022-11-16T09:09:52.427Z,21.27
2022-11-16T09:12:41.599Z,20.90
2022-11-16T09:15:33.103Z,21.17
2022-11-16T09:18:23.569Z,21.83
2022-11-16T09:21:23.998Z,20.73
2022-11-16T09:24:14.441Z,21.87
2022-11-16T09:27:06.727Z,21.10
2022-11-16T09:29:57.043Z,21.73
2022-11-16T09:32:50.613Z,21.37
2022-11-16T09:35:43.309Z,20.47
2022-11-16T09:38:47.477Z,21.23
2022-11-16T09:41:53.721Z,22.60
2022-11-16T09:45:02.118Z,22.67
2022-11-16T09:47:53.946Z,21.60
2022-11-16T09:50:56.226Z,23.20
2022-11-16T09:53:50.409Z,21.23
2022-11-16T09:56:41.053Z,23.30
2022-11-16T09:59:36.893Z,22.17
2022-11-16T10:02:35.019Z,22.93
2022-11-16T10:05:26.680Z,21.10
2022-11-16T10:08:18.116Z,21.97
2022-11-16T10:11:33.830Z,20.80
2022-11-16T10:14:46.509Z,22.10
2022-11-16T10:17:54.314Z,21.93
2022-11-16T10:20:57.250Z,21.33
2022-11-16T10:23:55.570Z,23.03
2022-11-16T10:26:49.089Z,22.80
2022-11-16T10:29:49.879Z,20.87
2022-11-16T10:32:41.052Z,21.97
2022-11-16T10:35:34.029Z,23.43
2022-11-16T10:38:35.231Z,23.20
2022-11-16T10:41:37.279Z,22.00
2022-11-16T10:44:34.136Z,23.20
2022-11-16T10:47:36.022Z,22.77
2022-11-16T10:50:35.410Z,22.20
2022-11-16T10:53:34.493Z,23.33
2022-11-16T10:56:24.204Z,22.80
2022-11-16T10:59:18.660Z,24.00
2022-11-16T11:02:28.558Z,23.30
2022-11-16T11:05:26.265Z,22.83
2022-11-16T11:11:50.904Z,24.33
2022-11-16T11:14:40.708Z,23.40
2022-11-16T11:17:38.082Z,23.07
2022-11-16T11:20:33.717Z,23.17
2022-11-16T11:23:28.511Z,23.50
2022-11-16T11:26:39.974Z,22.20
2022-11-16T11:29:33.541Z,23.20
2022-11-16T11:32:30.527Z,22.67
2022-11-16T11:35:25.513Z,23.10
2022-11-16T11:38:17.082Z,22.63
2022-11-16T11:41:06.131Z,22.83
2022-11-16T11:44:03.185Z,21.97
2022-11-16T11:47:42.484Z,23.40
2022-11-16T11:50:13.101Z,23.33
2022-11-16T11:53:04.746Z,23.10
2022-11-16T11:55:59.769Z,26.70
2022-11-16T11:58:51.581Z,23.60
2022-11-16T12:01:48.233Z,23.53
2022-11-16T12:04:57.277Z,24.80
2022-11-16T12:07:59.717Z,25.40
2022-11-16T12:10:52.327Z,24.60
2022-11-16T12:13:49.277Z,24.80
2022-11-16T12:16:45.765Z,25.67
2022-11-16T12:19:45.628Z,25.67
2022-11-16T12:22:46.270Z,24.53
2022-11-16T12:25:44.420Z,26.57
2022-11-16T12:28:45.003Z,26.17
2022-11-16T12:31:49.655Z,27.10
2022-11-16T12:34:56.560Z,27.93
2022-11-16T12:37:51.643Z,25.53
2022-11-16T12:40:52.137Z,26.50
2022-11-16T12:43:46.635Z,24.90
2022-11-16T12:46:40.330Z,26.77
2022-11-16T12:49:53.638Z,25.13
2022-11-16T12:52:59.116Z,25.13
2022-11-16T12:55:52.966Z,25.73
2022-11-16T12:58:53.417Z,27.07
2022-11-16T13:01:50.368Z,27.00
2022-11-16T13:04:42.661Z,25.43
2022-11-16T13:07:35.942Z,26.07
2022-11-16T13:10:28.245Z,25.20
2022-11-16T13:16:27.382Z,27.20
2022-11-16T13:19:26.984Z,25.30
2022-11-16T13:22:20.343Z,25.83
2022-11-16T13:25:16.423Z,26.37
2022-11-16T13:28:22.132Z,25.83
2022-11-16T13:31:16.847Z,24.87
2022-11-16T13:34:12.445Z,25.90
2022-11-16T13:37:24.022Z,24.00
2022-11-16T13:40:28.944Z,24.53
2022-11-16T13:43:21.745Z,20.70
2022-11-16T13:46:27.609Z,21.77
2022-11-16T13:49:28.518Z,22.90
2022-11-16T13:52:25.066Z,22.17
2022-11-16T13:55:30.397Z,22.13
2022-11-16T13:58:23.206Z,22.20
2022-11-16T14:01:18.403Z,21.97
2022-11-16T14:04:26.651Z,21.00
2022-11-16T14:07:48.633Z,21.53
2022-11-16T14:11:05.358Z,19.63
2022-11-16T14:14:06.587Z,18.70
2022-11-16T14:16:55.425Z,20.63
2022-11-16T14:20:07.833Z,20.63
2022-11-16T14:23:06.279Z,19.37
2022-11-16T14:26:10.763Z,20.00
2022-11-16T14:29:13.373Z,21.17
2022-11-16T14:32:08.908Z,18.50
2022-11-16T14:35:05.445Z,19.00
2022-11-16T14:38:03.135Z,19.67
2022-11-16T14:41:06.730Z,21.87
2022-11-16T14:43:56.693Z,20.77
2022-11-16T14:46:50.963Z,20.83
2022-11-16T14:50:02.022Z,21.00
2022-11-16T14:52:54.335Z,21.70
2022-11-16T14:55:45.553Z,19.93
2022-11-16T14:58:37.434Z,18.60
2022-11-16T15:01:28.092Z,20.07
2022-11-16T15:04:22.062Z,20.40
2022-11-16T15:07:12.382Z,21.43
2022-11-16T15:10:04.664Z,18.10
2022-11-16T15:12:56.479Z,19.33
2022-11-16T15:15:48.316Z,19.00
2022-11-16T15:18:37.932Z,20.00
2022-11-16T15:21:35.187Z,19.57
2022-11-16T15:24:32.378Z,18.00
2022-11-16T15:27:37.153Z,18.57
2022-11-16T15:30:26.895Z,18.17
2022-11-16T15:33:23.010Z,18.07
2022-11-16T15:36:29.335Z,16.43
2022-11-16T15:39:22.233Z,17.80
2022-11-16T15:42:15.637Z,18.00
2022-11-16T15:45:15.599Z,17.23
2022-11-16T15:48:13.915Z,17.50
2022-11-16T15:51:09.375Z,15.23
2022-11-16T15:54:13.627Z,16.00
2022-11-16T15:57:10.420Z,16.20
2022-11-16T16:00:07.974Z,15.30
2022-11-16T16:02:57.258Z,14.90
2022-11-16T16:05:47.981Z,14.00
2022-11-16T16:08:37.433Z,13.57
2022-11-16T16:11:34.656Z,13.70
2022-11-16T16:14:29.662Z,12.83
2022-11-16T16:17:30.499Z,13.73
2022-11-16T16:20:26.625Z,13.10
2022-11-16T16:23:17.802Z,12.70
2022-11-16T16:26:15.577Z,12.50
2022-11-16T16:29:08.748Z,12.60
2022-11-16T16:32:00.317Z,11.80
2022-11-16T16:34:50.286Z,11.90
2022-11-16T16:37:41.779Z,11.97
2022-11-16T16:40:42.971Z,10.87
2022-11-16T16:43:32.087Z,10.80
2022-11-16T16:46:21.648Z,10.53
2022-11-16T16:49:13.695Z,10.43
2022-11-16T16:52:06.690Z,10.60
2022-11-16T16:54:57.260Z,10.20
2022-11-16T16:57:47.290Z,10.07
2022-11-16T17:00:36.008Z,9.80
2022-11-16T17:03:24.611Z,10.17
2022-11-16T17:06:19.919Z,10.30
2022-11-16T17:09:10.785Z,10.23
2022-11-16T17:11:59.418Z,9.33
2022-11-16T17:14:57.141Z,9.97
2022-11-16T17:17:48.734Z,9.87
2022-11-16T17:20:42.688Z,9.60
2022-11-16T17:23:35.659Z,10.40
2022-11-16T17:26:29.461Z,8.97
2022-11-16T17:29:20.962Z,8.60
2022-11-16T17:32:09.648Z,9.90
2022-11-16T17:35:08.482Z,8.10
2022-11-16T17:37:58.639Z,9.53
2022-11-16T17:40:48.655Z,9.53
2022-11-16T17:43:41.560Z,9.17
2022-11-16T17:46:47.308Z,8.50
2022-11-16T17:49:37.048Z,8.10
2022-11-16T17:52:28.252Z,8.47
2022-11-16T17:55:16.952Z,7.97
2022-11-16T17:58:06.883Z,7.37
2022-11-16T18:00:59.845Z,7.73
2022-11-16T18:03:50.785Z,8.80
2022-11-16T18:06:43.251Z,7.40
2022-11-16T18:09:37.049Z,8.50
2022-11-16T18:12:36.476Z,7.90
2022-11-16T18:15:37.842Z,7.70
2022-11-16T18:18:30.704Z,8.30
2022-11-16T18:21:20.912Z,8.07
2022-11-16T18:24:20.094Z,6.80
2022-11-16T18:27:08.736Z,7.10
2022-11-16T18:30:03.954Z,7.50
2022-11-16T18:32:58.356Z,7.67
2022-11-16T18:35:51.156Z,7.60
2022-11-16T18:38:41.524Z,8.00
2022-11-16T18:41:34.996Z,7.53
2022-11-16T18:44:34.117Z,8.00
2022-11-16T18:47:22.784Z,7.77
2022-11-16T18:50:21.426Z,7.63
2022-11-16T18:53:21.033Z,7.43
2022-11-16T18:56:11.828Z,7.13
2022-11-16T18:59:03.320Z,7.60
2022-11-16T19:01:54.960Z,7.60
2022-11-16T19:04:48.609Z,8.80
2022-11-16T19:07:40.866Z,8.63
2022-11-16T19:10:29.580Z,8.63
2022-11-16T19:13:18.186Z,8.30
2022-11-16T19:16:07.210Z,8.53
2022-11-16T19:18:55.901Z,9.17
2022-11-16T19:21:44.506Z,7.40
2022-11-16T19:24:36.524Z,9.20
2022-11-16T19:27:26.479Z,9.47
2022-11-16T19:30:16.205Z,9.43
2022-11-16T19:33:09.522Z,9.80
2022-11-16T19:36:00.927Z,9.30
2022-11-16T19:38:56.723Z,8.67
2022-11-16T19:41:49.160Z,8.50
2022-11-16T19:44:40.374Z,11.70
2022-11-16T19:47:28.954Z,11.10
2022-11-16T19:50:27.545Z,11.30
2022-11-16T19:53:19.185Z,11.47
2022-11-16T19:56:16.546Z,10.13
2022-11-16T19:59:08.768Z,11.07
2022-11-16T20:02:01.642Z,11.50
2022-11-16T20:04:55.356Z,11.17
2022-11-16T20:07:44.618Z,10.27
2022-11-16T20:10:33.273Z,9.87
2022-11-16T20:13:25.546Z,8.40
2022-11-16T20:16:15.818Z,8.93
2022-11-16T20:19:07.474Z,7.50
2022-11-16T20:22:05.340Z,7.87
2022-11-16T20:24:55.659Z,8.20
2022-11-16T20:27:51.022Z,7.43
2022-11-16T20:30:41.688Z,7.67
2022-11-16T20:33:44.797Z,7.73
2022-11-16T20:36:36.443Z,7.57
2022-11-16T20:39:27.518Z,7.00
2022-11-16T20:42:16.153Z,7.77
2022-11-16T20:45:06.687Z,7.50
2022-11-16T20:47:59.581Z,6.70
2022-11-16T20:50:57.373Z,7.13
2022-11-16T20:53:48.184Z,6.27
2022-11-16T20:56:51.028Z,5.53
2022-11-16T20:59:41.533Z,5.97
2022-11-16T21:02:33.206Z,5.40
2022-11-16T21:05:29.882Z,5.03
2022-11-16T21:08:21.680Z,5.53
2022-11-16T21:11:16.640Z,5.20
2022-11-16T21:14:16.526Z,5.37
2022-11-16T21:17:08.980Z,5.50
2022-11-16T21:20:25.939Z,5.27
2022-11-16T21:23:11.868Z,5.00
2022-11-16T21:26:05.235Z,5.17
2022-11-16T21:28:56.870Z,4.70
2022-11-16T21:31:45.461Z,4.60
2022-11-16T21:34:40.161Z,4.70
2022-11-16T21:37:29.021Z,5.13
2022-11-16T21:40:17.884Z,5.80
2022-11-16T21:43:07.851Z,4.50
2022-11-16T21:46:03.700Z,4.37
2022-11-16T21:48:58.271Z,4.30
2022-11-16T21:51:55.004Z,5.00
2022-11-16T21:54:50.907Z,4.70
2022-11-16T21:57:41.305Z,5.33
2022-11-16T22:00:31.554Z,5.07
2022-11-16T22:03:23.390Z,4.97
2022-11-16T22:06:31.841Z,4.27
2022-11-16T22:09:23.696Z,4.90
2022-11-16T22:12:14.146Z,4.60
2022-11-16T22:15:11.312Z,5.10
2022-11-16T22:18:01.237Z,3.80
2022-11-16T22:20:50.788Z,4.53
2022-11-16T22:23:40.833Z,4.47
2022-11-16T22:26:34.025Z,3.90
2022-11-16T22:29:22.577Z,4.60
2022-11-16T22:32:16.196Z,4.00
2022-11-16T22:35:24.043Z,3.80
2022-11-16T22:38:14.988Z,3.73
2022-11-16T22:41:07.672Z,3.90
2022-11-16T22:44:03.112Z,3.70
2022-11-16T22:46:56.654Z,3.90
2022-11-16T22:49:55.189Z,3.90
2022-11-16T22:52:46.558Z,3.40
2022-11-16T22:55:46.476Z,3.60
2022-11-16T22:58:54.573Z,3.70
2022-11-16T23:01:44.982Z,3.70
2022-11-16T23:04:38.402Z,3.30
2022-11-16T23:07:30.067Z,3.80
2022-11-16T23:10:23.653Z,3.60
2022-11-16T23:13:32.974Z,4.30
2022-11-16T23:16:24.217Z,3.47
2022-11-16T23:19:29.575Z,3.63
2022-11-16T23:22:42.786Z,3.67
2022-11-16T23:25:57.711Z,3.97
2022-11-16T23:28:55.552Z,4.10
2022-11-16T23:31:45.257Z,4.30
2022-11-16T23:34:36.159Z,3.60
2022-11-16T23:37:28.094Z,3.40
2022-11-16T23:40:20.537Z,4.00
2022-11-16T23:43:45.846Z,3.53
2022-11-16T23:46:36.140Z,4.20
2022-11-16T23:49:27.504Z,3.93
2022-11-16T23:52:18.022Z,4.10
2022-11-16T23:55:14.148Z,4.17
2022-11-16T23:58:02.757Z,3.90
